Airfield :
LOGIN :

Register | Disclaimer

   EN    FR    IT 

 










Legend :    VFR   Marginal VFR   IFR   Intensive IFR   Very Intensive IFR
Visi :
Ceiling :
>= 8 km
>= 3000ft
5 to 8 km
1000 to 3000 ft
1500m to 5 km
500 to 1000 ft
800 to 1500m
200 to 500 ft
< 800m
< 200 ft
Symbols :   Thunderstorms  Fog  Heavy snow  Heavy precipitations  Wind > 20 kt
SIGMETs :     Misc.  Thunderstorms  Icing  Turbulence  Mountain Waves  Volcanic Ashes






- Airport Elevation : 286 ft
- IATA code : FFD


EGVA - RAF Fairford

CURRENT METAR :
  • 060556Z AUTO 23004KT 9999 FEW013 BKN033 OVC041 10/10 A2985 RMK AO2 RAE0458DZB0458E0459DZB13E22 SLP111 P0000 60004 T00950095 10142 20095 52033 $

EXPIRED METARs :
  • 060547Z AUTO 23004KT 9999 FEW013 OVC031 10/10 A2985 RMK AO2 RAE0458DZB0458E0459DZB13E22 SLP111 $
  • 060522Z AUTO 24005KT 9999 FEW018 OVC026 10/10 A2983 RMK AO2 RAE0458DZB0458E0459DZB13E22 SLP104 $
  • 060513Z AUTO 24007KT 9999 -DZ FEW018 OVC024 10/10 A2983 RMK AO2 RAE0458DZB0458E0459DZB13 SLP104 $
  • 060459Z AUTO 24008KT 9999 OVC023 10/10 A2982 RMK AO2 RAE58DZB58E59 SLP101 $
  • 060449Z AUTO 24009KT 9999 -RA OVC023 10/10 A2982 RMK AO2 RAE0358DZB0358E0359RAB49 SLP101 $
  • 060420Z AUTO 26013KT 9999 BKN023 OVC032 10/10 A2980 RMK AO2 RAE0358DZB0358E0359 CIG 023V032 SLP094 $
  • 060410Z AUTO 25012KT 9999 FEW006 FEW015 SCT022 OVC032 10/10 A2979 RMK AO2 RAE0358DZB0358E0359 SLP090 $
  • 060400Z AUTO 25012KT 9999 FEW006 SCT010 BKN023 OVC032 10/10 A2979 RMK AO2 RAE0358DZB0358E0359 CIG 008V023 SLP090 $
  • 060351Z AUTO 26013G25KT 9999 -RA FEW006 BKN010 BKN021 OVC034 11/11 A2979 RMK AO2 CIG 008V010 BKN010 V OVC SLP090 $
  • 060342Z AUTO 25019G25KT 9999 RA OVC008 13/13 A2978 RMK AO2 WSHFT 36 CIG 008V010 SLP086 $

Expired Forecast.



MET'MAP, your aeronautical weather chart ! - Copyright ORBIFLY December 2007 - Disclaimer

ORBIFLY MET'MAP TEAM :

Programming & Development : Alexandra Zaïnal
Concept & original design : Baudouin d'Aumeries
Assistance for programming : Marc-Olivier Méhu
Technical & hardware support : Manuel Goepfert

Contact : metmap@orbifly.com




SOURCES & CREDITS :

   NOAA